createdAt,value
2023-05-13T00:02:20.334Z,2.15
2023-05-13T00:05:25.676Z,2.20
2023-05-13T00:08:31.134Z,2.22
2023-05-13T00:11:36.798Z,2.35
2023-05-13T00:14:42.530Z,2.53
2023-05-13T00:17:47.836Z,2.97
2023-05-13T00:20:53.398Z,2.78
2023-05-13T00:23:59.441Z,2.42
2023-05-13T00:27:04.986Z,2.05
2023-05-13T00:30:11.274Z,2.75
2023-05-13T00:33:16.756Z,2.70
2023-05-13T00:36:22.396Z,2.47
2023-05-13T00:39:29.378Z,2.45
2023-05-13T00:42:34.894Z,3.20
2023-05-13T00:45:41.379Z,2.40
2023-05-13T00:48:47.408Z,2.92
2023-05-13T00:51:55.498Z,2.58
2023-05-13T00:55:01.519Z,2.38
2023-05-13T00:58:06.951Z,3.20
2023-05-13T01:01:32.321Z,3.47
2023-05-13T01:04:45.682Z,3.40
2023-05-13T01:08:25.209Z,2.72
2023-05-13T01:11:42.115Z,3.17
2023-05-13T01:14:55.819Z,3.20
2023-05-13T01:18:11.505Z,3.40
2023-05-13T01:21:17.408Z,3.67
2023-05-13T01:24:23.425Z,4.50
2023-05-13T01:27:29.382Z,3.60
2023-05-13T01:30:36.922Z,4.30
2023-05-13T01:33:44.282Z,4.68
2023-05-13T01:36:51.392Z,3.53
2023-05-13T01:39:59.300Z,4.22
2023-05-13T01:43:05.210Z,3.45
2023-05-13T01:46:14.263Z,3.33
2023-05-13T01:49:20.064Z,3.40
2023-05-13T01:52:25.572Z,3.53
2023-05-13T01:55:31.765Z,3.50
2023-05-13T01:58:40.459Z,3.17
2023-05-13T02:01:46.345Z,3.25
2023-05-13T02:04:51.991Z,3.50
2023-05-13T02:07:57.746Z,3.60
2023-05-13T02:11:03.852Z,4.03
2023-05-13T02:14:09.259Z,3.42
2023-05-13T02:17:15.212Z,3.50
2023-05-13T02:20:21.707Z,3.75
2023-05-13T02:23:27.726Z,3.63
2023-05-13T02:26:34.346Z,3.60
2023-05-13T02:29:40.211Z,3.70
2023-05-13T02:32:47.764Z,4.03
2023-05-13T02:35:53.660Z,3.80
2023-05-13T02:38:59.362Z,4.10
2023-05-13T02:42:05.689Z,3.35
2023-05-13T02:45:12.411Z,4.20
2023-05-13T02:48:21.003Z,3.97
2023-05-13T02:51:26.673Z,4.78
2023-05-13T02:54:32.648Z,3.58
2023-05-13T02:57:38.356Z,4.15
2023-05-13T03:00:44.219Z,3.70
2023-05-13T03:03:50.720Z,3.72
2023-05-13T03:06:56.033Z,3.42
2023-05-13T03:10:01.696Z,3.63
2023-05-13T03:13:07.406Z,2.72
2023-05-13T03:16:13.544Z,3.60
2023-05-13T03:19:19.101Z,3.45
2023-05-13T03:22:24.395Z,4.00
2023-05-13T03:25:30.261Z,3.78
2023-05-13T03:28:37.751Z,4.40
2023-05-13T03:31:43.724Z,3.72
2023-05-13T03:34:49.331Z,3.45
2023-05-13T03:37:55.743Z,3.80
2023-05-13T03:41:01.462Z,3.08
2023-05-13T03:44:08.089Z,3.60
2023-05-13T03:47:13.712Z,4.00
2023-05-13T03:50:19.647Z,3.83
2023-05-13T03:53:25.275Z,4.97
2023-05-13T03:56:32.966Z,3.88
2023-05-13T03:59:40.231Z,4.28
2023-05-13T04:02:46.373Z,3.85
2023-05-13T04:05:52.592Z,4.00
2023-05-13T04:08:58.488Z,3.45
2023-05-13T04:12:04.260Z,3.70
2023-05-13T04:15:09.952Z,4.65
2023-05-13T04:18:15.284Z,4.50
2023-05-13T04:21:20.974Z,4.45
2023-05-13T04:24:27.029Z,4.47
2023-05-13T04:27:32.363Z,4.55
2023-05-13T04:30:45.630Z,3.90
2023-05-13T04:33:51.316Z,5.05
2023-05-13T04:36:57.094Z,4.13
2023-05-13T04:40:04.057Z,4.30
2023-05-13T04:43:09.974Z,4.35
2023-05-13T04:46:24.487Z,4.78
2023-05-13T04:49:30.775Z,3.92
2023-05-13T04:52:37.849Z,3.72
2023-05-13T04:55:43.657Z,4.47
2023-05-13T04:58:49.246Z,4.35
2023-05-13T05:01:55.241Z,4.93
2023-05-13T05:05:00.859Z,4.80
2023-05-13T05:08:06.820Z,5.60
2023-05-13T05:11:12.777Z,4.13
2023-05-13T05:14:18.297Z,5.20
2023-05-13T05:17:24.156Z,3.70
2023-05-13T05:20:29.594Z,3.97
2023-05-13T05:23:37.377Z,4.20
2023-05-13T05:26:42.910Z,4.05
2023-05-13T05:29:49.140Z,3.80
2023-05-13T05:32:54.552Z,4.30
2023-05-13T05:36:00.661Z,4.53
2023-05-13T05:39:06.502Z,4.30
2023-05-13T05:42:15.595Z,4.03
2023-05-13T05:45:21.325Z,4.22
2023-05-13T05:48:27.036Z,5.68
2023-05-13T05:51:33.286Z,3.90
2023-05-13T05:54:40.856Z,4.53
2023-05-13T05:57:46.130Z,4.22
2023-05-13T06:00:52.024Z,4.47
2023-05-13T06:03:57.089Z,4.40
2023-05-13T06:07:02.820Z,4.70
2023-05-13T06:10:09.025Z,4.63
2023-05-13T06:13:15.028Z,4.20
2023-05-13T06:16:20.952Z,4.05
2023-05-13T06:19:26.963Z,4.22
2023-05-13T06:22:32.982Z,4.13
2023-05-13T06:25:39.006Z,4.18
2023-05-13T06:28:45.521Z,4.55
2023-05-13T06:31:51.186Z,4.20
2023-05-13T06:34:56.821Z,3.90
2023-05-13T06:38:02.373Z,4.60
2023-05-13T06:41:08.050Z,4.30
2023-05-13T06:44:16.280Z,5.07
2023-05-13T06:47:24.415Z,4.25
2023-05-13T06:50:30.157Z,3.88
2023-05-13T06:53:35.943Z,3.30
2023-05-13T06:56:41.753Z,3.33
2023-05-13T06:59:47.646Z,3.40
2023-05-13T07:02:52.931Z,2.90
2023-05-13T07:05:58.326Z,3.05
2023-05-13T07:09:08.204Z,2.75
2023-05-13T07:12:14.681Z,2.90
2023-05-13T07:15:20.646Z,2.58
2023-05-13T07:18:26.520Z,2.53
2023-05-13T07:21:32.423Z,1.88
2023-05-13T07:24:37.748Z,2.70
2023-05-13T07:27:43.125Z,2.40
2023-05-13T07:30:48.773Z,2.20
2023-05-13T07:33:54.055Z,1.90
2023-05-13T07:36:59.289Z,2.22
2023-05-13T07:40:06.965Z,1.88
2023-05-13T07:43:14.209Z,2.30
2023-05-13T07:46:19.734Z,2.15
2023-05-13T07:49:25.106Z,2.20
2023-05-13T07:52:30.560Z,2.22
2023-05-13T07:55:35.810Z,2.72
2023-05-13T07:58:41.178Z,2.08
2023-05-13T08:01:46.801Z,2.45
2023-05-13T08:04:52.215Z,3.03
2023-05-13T08:07:58.010Z,2.55
2023-05-13T08:11:03.544Z,2.35
2023-05-13T08:14:08.648Z,2.50
2023-05-13T08:17:14.250Z,2.72
2023-05-13T08:20:20.277Z,2.40
2023-05-13T08:23:43.539Z,2.47
2023-05-13T08:26:51.316Z,2.22
2023-05-13T08:29:56.445Z,2.85
2023-05-13T08:33:02.117Z,2.20
2023-05-13T08:36:08.566Z,4.18
2023-05-13T08:42:40.193Z,3.03
2023-05-13T08:45:48.357Z,2.30
2023-05-13T08:48:55.359Z,3.13
2023-05-13T08:52:01.007Z,3.40
2023-05-13T08:55:09.091Z,2.50
2023-05-13T08:58:14.226Z,2.80
2023-05-13T09:01:19.633Z,2.83
2023-05-13T09:04:26.253Z,3.10
2023-05-13T09:07:31.990Z,2.70
2023-05-13T09:10:37.764Z,2.95
2023-05-13T09:13:45.391Z,2.20
2023-05-13T09:16:50.829Z,2.45
2023-05-13T09:19:57.005Z,2.92
2023-05-13T09:23:10.800Z,3.15
2023-05-13T09:26:30.035Z,3.30
2023-05-13T09:29:35.230Z,3.70
2023-05-13T09:32:42.938Z,2.70
2023-05-13T09:35:53.698Z,2.42
2023-05-13T09:39:00.315Z,2.40
2023-05-13T09:42:06.635Z,1.90
2023-05-13T09:45:14.222Z,2.10
2023-05-13T09:48:23.940Z,2.22
2023-05-13T09:51:31.306Z,1.70
2023-05-13T09:54:36.873Z,1.60
2023-05-13T09:57:42.556Z,1.45
2023-05-13T10:00:48.795Z,1.10
2023-05-13T10:03:57.065Z,2.00
2023-05-13T10:07:05.323Z,1.75
2023-05-13T10:10:11.035Z,1.95
2023-05-13T10:13:20.212Z,1.65
2023-05-13T10:16:26.205Z,1.40
2023-05-13T10:19:32.492Z,1.90
2023-05-13T10:22:39.455Z,1.90
2023-05-13T10:25:46.536Z,1.33
2023-05-13T10:28:54.095Z,1.13
2023-05-13T10:32:00.704Z,1.23
2023-05-13T10:35:13.760Z,1.40
2023-05-13T10:38:48.413Z,1.40
2023-05-13T10:42:44.516Z,1.25
2023-05-13T10:46:01.468Z,1.67
2023-05-13T10:49:16.438Z,2.45
2023-05-13T10:52:22.375Z,2.10
2023-05-13T10:55:28.413Z,1.27
2023-05-13T10:58:38.532Z,1.52
2023-05-13T11:01:46.129Z,1.52
2023-05-13T11:05:00.530Z,1.17
2023-05-13T11:08:05.916Z,1.27
2023-05-13T11:11:22.981Z,2.13
2023-05-13T11:14:31.284Z,1.33
2023-05-13T11:17:37.808Z,2.88
2023-05-13T11:20:52.481Z,1.30
2023-05-13T11:24:05.836Z,1.58
2023-05-13T11:27:21.566Z,1.35
2023-05-13T11:30:28.024Z,2.13
2023-05-13T11:34:11.955Z,1.30
2023-05-13T11:37:18.287Z,1.50
2023-05-13T11:40:26.004Z,1.10
2023-05-13T11:43:34.106Z,1.60
2023-05-13T11:46:53.396Z,1.23
2023-05-13T11:49:59.378Z,0.93
2023-05-13T11:53:05.340Z,1.02
2023-05-13T11:56:11.845Z,0.90
2023-05-13T11:59:17.440Z,1.00
2023-05-13T12:02:35.615Z,0.80
2023-05-13T12:05:41.621Z,1.23
2023-05-13T12:08:47.467Z,1.00
2023-05-13T12:11:54.067Z,0.75
2023-05-13T12:15:00.915Z,0.90
2023-05-13T12:18:07.051Z,0.60
2023-05-13T12:21:17.763Z,0.80
2023-05-13T12:24:23.146Z,0.70
2023-05-13T12:27:29.027Z,0.70
2023-05-13T12:30:35.580Z,0.80
2023-05-13T12:33:43.047Z,0.63
2023-05-13T12:36:48.383Z,1.55
2023-05-13T12:40:10.596Z,0.70
2023-05-13T12:43:20.473Z,0.68
2023-05-13T12:46:26.292Z,0.70
2023-05-13T12:49:32.036Z,1.60
2023-05-13T12:52:37.649Z,0.95
2023-05-13T12:55:43.910Z,0.80
2023-05-13T12:58:51.030Z,0.73
2023-05-13T13:01:56.481Z,1.17
2023-05-13T13:05:01.929Z,0.95
2023-05-13T13:08:07.188Z,0.68
2023-05-13T13:11:18.886Z,0.80
2023-05-13T13:14:26.395Z,0.45
2023-05-13T13:17:31.708Z,0.70
2023-05-13T13:20:39.007Z,0.82
2023-05-13T13:23:44.629Z,0.65
2023-05-13T13:26:50.467Z,0.70
2023-05-13T13:29:56.121Z,0.80
2023-05-13T13:33:02.087Z,1.10
2023-05-13T13:36:07.975Z,0.90
2023-05-13T13:39:13.291Z,1.15
2023-05-13T13:42:18.563Z,1.33
2023-05-13T13:45:24.463Z,1.10
2023-05-13T13:48:29.328Z,1.45
2023-05-13T13:51:34.501Z,1.50
2023-05-13T13:54:39.833Z,1.35
2023-05-13T13:57:46.055Z,1.30
2023-05-13T14:00:52.881Z,1.20
2023-05-13T14:04:16.207Z,1.08
2023-05-13T14:07:21.518Z,1.27
2023-05-13T14:10:26.897Z,1.00
2023-05-13T14:13:32.432Z,1.55
2023-05-13T14:16:37.470Z,0.80
2023-05-13T14:19:42.755Z,0.93
2023-05-13T14:22:48.470Z,1.20
2023-05-13T14:25:54.186Z,0.82
2023-05-13T14:28:59.345Z,1.00
2023-05-13T14:32:04.855Z,0.77
2023-05-13T14:35:10.465Z,0.73
2023-05-13T14:38:16.075Z,0.82
2023-05-13T14:41:21.887Z,0.98
2023-05-13T14:44:26.996Z,0.80
2023-05-13T14:47:32.613Z,1.30
2023-05-13T14:50:39.414Z,0.70
2023-05-13T14:53:47.081Z,0.65
2023-05-13T14:56:53.372Z,0.80
2023-05-13T15:00:00.047Z,0.60
2023-05-13T15:03:06.552Z,0.52
2023-05-13T15:06:12.092Z,0.95
2023-05-13T15:09:19.408Z,0.60
2023-05-13T15:12:24.932Z,1.13
2023-05-13T15:15:30.939Z,1.20
2023-05-13T15:18:36.556Z,0.93
2023-05-13T15:21:41.996Z,1.10
2023-05-13T15:24:47.868Z,0.85
2023-05-13T15:27:53.372Z,1.30
2023-05-13T15:30:59.173Z,1.42
2023-05-13T15:34:04.969Z,0.80
2023-05-13T15:37:10.794Z,1.15
2023-05-13T15:40:16.467Z,1.95
2023-05-13T15:43:21.993Z,2.05
2023-05-13T15:46:27.368Z,1.63
2023-05-13T15:49:36.054Z,0.95
2023-05-13T15:52:41.538Z,0.70
2023-05-13T15:55:47.230Z,0.80
2023-05-13T15:58:53.207Z,1.35
2023-05-13T16:01:58.567Z,0.70
2023-05-13T16:05:04.191Z,0.88
2023-05-13T16:08:09.731Z,0.80
2023-05-13T16:11:15.350Z,1.00
2023-05-13T16:14:20.599Z,1.40
2023-05-13T16:17:26.341Z,1.20
2023-05-13T16:20:31.612Z,1.15
2023-05-13T16:23:37.110Z,1.73
2023-05-13T16:26:42.363Z,1.98
2023-05-13T16:29:47.854Z,2.38
2023-05-13T16:32:54.692Z,2.05
2023-05-13T16:36:00.164Z,1.40
2023-05-13T16:39:05.819Z,1.58
2023-05-13T16:42:11.581Z,1.20
2023-05-13T16:45:16.940Z,1.15
2023-05-13T16:48:22.581Z,0.90
2023-05-13T16:51:28.358Z,1.10
2023-05-13T16:54:34.705Z,1.13
2023-05-13T16:57:40.241Z,1.00
2023-05-13T17:00:45.781Z,0.95
2023-05-13T17:03:51.273Z,1.15
2023-05-13T17:06:58.902Z,1.52
2023-05-13T17:10:04.945Z,0.65
2023-05-13T17:13:10.878Z,1.10
2023-05-13T17:16:16.672Z,0.73
2023-05-13T17:19:22.110Z,0.98
2023-05-13T17:22:28.072Z,2.20
2023-05-13T17:25:33.693Z,0.93
2023-05-13T17:28:40.572Z,1.63
2023-05-13T17:31:46.021Z,1.40
2023-05-13T17:34:51.591Z,1.23
2023-05-13T17:37:57.104Z,1.35
2023-05-13T17:41:02.312Z,1.15
2023-05-13T17:44:07.725Z,1.33
2023-05-13T17:47:13.296Z,1.20
2023-05-13T17:50:19.288Z,1.17
2023-05-13T17:53:25.168Z,0.98
2023-05-13T17:56:31.446Z,1.10
2023-05-13T17:59:37.748Z,1.10
2023-05-13T18:02:43.397Z,1.23
2023-05-13T18:05:49.312Z,0.90
2023-05-13T18:08:54.627Z,1.08
2023-05-13T18:12:00.079Z,1.05
2023-05-13T18:15:06.837Z,1.50
2023-05-13T18:18:12.167Z,0.93
2023-05-13T18:21:18.019Z,1.35
2023-05-13T18:24:23.566Z,1.83
2023-05-13T18:27:28.831Z,1.85
2023-05-13T18:30:34.433Z,1.20
2023-05-13T18:33:39.674Z,1.30
2023-05-13T18:36:46.142Z,1.48
2023-05-13T18:39:51.947Z,1.30
2023-05-13T18:42:57.666Z,1.17
2023-05-13T18:46:03.209Z,1.23
2023-05-13T18:49:08.788Z,1.05
2023-05-13T18:52:14.328Z,1.05
2023-05-13T18:55:20.244Z,1.58
2023-05-13T18:58:27.377Z,1.10
2023-05-13T19:01:33.193Z,1.63
2023-05-13T19:04:38.684Z,1.42
2023-05-13T19:07:44.753Z,1.77
2023-05-13T19:10:50.241Z,1.48
2023-05-13T19:13:55.905Z,1.50
2023-05-13T19:17:01.916Z,1.75
2023-05-13T19:20:09.044Z,1.42
2023-05-13T19:23:14.852Z,2.03
2023-05-13T19:26:20.153Z,1.88
2023-05-13T19:29:26.312Z,2.10
2023-05-13T19:32:31.985Z,2.10
2023-05-13T19:35:37.645Z,1.80
2023-05-13T19:38:43.329Z,2.10
2023-05-13T19:41:48.985Z,2.20
2023-05-13T19:44:54.148Z,1.92
2023-05-13T19:47:59.621Z,2.22
2023-05-13T19:51:05.268Z,2.65
2023-05-13T19:54:12.251Z,2.33
2023-05-13T19:57:17.637Z,2.38
2023-05-13T20:00:24.555Z,2.45
2023-05-13T20:03:31.085Z,2.33
2023-05-13T20:06:37.064Z,1.80
2023-05-13T20:09:42.348Z,1.90
2023-05-13T20:12:47.873Z,2.00
2023-05-13T20:15:53.174Z,2.10
2023-05-13T20:18:58.427Z,2.05
2023-05-13T20:22:04.411Z,1.95
2023-05-13T20:25:10.413Z,2.70
2023-05-13T20:28:16.000Z,2.17
2023-05-13T20:31:21.785Z,1.90
2023-05-13T20:34:27.216Z,2.40
2023-05-13T20:37:32.946Z,2.30
2023-05-13T20:40:38.932Z,2.78
2023-05-13T20:43:44.396Z,2.65
2023-05-13T20:46:50.367Z,2.40
2023-05-13T20:49:55.855Z,2.05
2023-05-13T20:53:01.669Z,2.13
2023-05-13T20:56:07.214Z,2.08
2023-05-13T20:59:12.786Z,1.75
2023-05-13T21:02:18.824Z,2.10
2023-05-13T21:05:24.692Z,2.35
2023-05-13T21:08:30.458Z,1.92
2023-05-13T21:11:36.741Z,1.48
2023-05-13T21:14:42.077Z,1.80
2023-05-13T21:17:48.205Z,1.63
2023-05-13T21:20:53.374Z,1.52
2023-05-13T21:23:58.693Z,1.35
2023-05-13T21:27:03.838Z,1.40
2023-05-13T21:30:10.422Z,1.40
2023-05-13T21:33:17.204Z,1.27
2023-05-13T21:36:23.018Z,1.52
2023-05-13T21:39:28.715Z,1.60
2023-05-13T21:42:34.563Z,1.80
2023-05-13T21:45:40.421Z,1.77
2023-05-13T21:48:47.025Z,1.67
2023-05-13T21:51:52.866Z,1.90
2023-05-13T21:54:58.420Z,1.95
2023-05-13T21:58:03.746Z,1.52
2023-05-13T22:01:09.762Z,1.90
2023-05-13T22:04:15.292Z,1.73
2023-05-13T22:07:21.178Z,1.95
2023-05-13T22:10:26.821Z,1.70
2023-05-13T22:13:31.927Z,1.92
2023-05-13T22:16:37.415Z,1.85
2023-05-13T22:19:42.893Z,2.00
2023-05-13T22:22:48.030Z,1.70
2023-05-13T22:25:53.811Z,2.03
2023-05-13T22:28:59.243Z,2.03
2023-05-13T22:32:04.825Z,2.03
2023-05-13T22:35:10.825Z,1.92
2023-05-13T22:38:16.118Z,2.65
2023-05-13T22:41:23.914Z,2.20
2023-05-13T22:44:29.246Z,1.60
2023-05-13T22:47:37.304Z,1.90
2023-05-13T22:50:42.607Z,1.90
2023-05-13T22:53:47.923Z,1.88
2023-05-13T22:56:53.186Z,1.98
2023-05-13T22:59:58.730Z,2.00
2023-05-13T23:03:04.195Z,2.90
2023-05-13T23:06:11.460Z,1.80
2023-05-13T23:09:17.170Z,2.08
2023-05-13T23:12:22.827Z,2.10
2023-05-13T23:15:28.284Z,2.00
2023-05-13T23:18:34.519Z,2.35
2023-05-13T23:21:39.770Z,2.05
2023-05-13T23:24:45.460Z,2.80
2023-05-13T23:27:51.523Z,2.53
2023-05-13T23:30:57.096Z,2.50
2023-05-13T23:34:03.011Z,2.40
2023-05-13T23:37:08.331Z,2.95
2023-05-13T23:40:14.061Z,3.10
2023-05-13T23:43:18.991Z,3.90
2023-05-13T23:46:24.333Z,2.83
2023-05-13T23:49:29.627Z,3.83
2023-05-13T23:52:35.058Z,2.92
2023-05-13T23:55:40.809Z,2.80
2023-05-13T23:58:46.138Z,2.70
